Time;durP1;ratioP1;P1;durP2;ratioP2;P2;SDS_P1;SDS_P2;PMS_P1;PMS_P2;Temp;Humidity;BMP_temperature;BMP_pressure;BME280_temperature;BME280_humidity;BME280_pressure;Samples;Min_cycle;Max_cycle;Signal;HPM_P1;HPM_P2
2022/03/24 00:01:37;;;;;;;34.95;21.73;;;10.00;97.20;;;;;;5016604;28;20486;-68
2022/03/24 00:04:02;;;;;;;29.83;20.60;;;10.00;97.20;;;;;;5016223;28;20105;-68
2022/03/24 00:06:28;;;;;;;34.10;21.05;;;10.00;97.30;;;;;;5016851;28;20053;-68
2022/03/24 00:08:53;;;;;;;33.42;22.45;;;10.00;97.30;;;;;;5016308;28;20075;-68
2022/03/24 00:11:20;;;;;;;30.20;20.63;;;10.00;97.40;;;;;;5016421;28;20375;-68
2022/03/24 00:13:48;;;;;;;32.22;20.95;;;9.90;97.60;;;;;;5015548;28;20158;-68
2022/03/24 00:16:15;;;;;;;34.03;22.45;;;9.90;97.80;;;;;;5016303;28;20125;-68
2022/03/24 00:18:41;;;;;;;37.90;21.08;;;9.80;97.90;;;;;;4982948;28;20053;-69
2022/03/24 00:21:08;;;;;;;32.20;22.00;;;9.80;98.20;;;;;;5016576;28;20069;-69
2022/03/24 00:23:34;;;;;;;33.08;21.42;;;9.70;98.30;;;;;;5016065;28;20052;-68
2022/03/24 00:26:00;;;;;;;32.50;21.73;;;9.80;98.40;;;;;;5016299;28;20038;-68
2022/03/24 00:28:26;;;;;;;33.55;21.25;;;9.80;98.40;;;;;;5015873;28;20371;-69
2022/03/24 00:30:51;;;;;;;33.45;21.95;;;9.80;98.50;;;;;;5016086;28;20132;-68
2022/03/24 00:33:18;;;;;;;34.33;21.58;;;9.80;98.60;;;;;;5015762;28;20077;-68
2022/03/24 00:35:43;;;;;;;38.90;22.40;;;9.70;98.80;;;;;;5015934;28;20053;-69
2022/03/24 00:38:09;;;;;;;31.80;21.33;;;9.60;99.00;;;;;;5015622;28;20030;-68
2022/03/24 00:40:35;;;;;;;30.98;21.90;;;9.60;99.00;;;;;;5016269;28;20078;-69
2022/03/24 00:43:02;;;;;;;32.80;23.23;;;9.70;99.10;;;;;;5014911;28;20143;-68
2022/03/24 00:45:29;;;;;;;34.75;22.95;;;9.60;99.10;;;;;;5016124;28;20305;-69
2022/03/24 00:47:55;;;;;;;36.08;23.38;;;9.60;99.10;;;;;;5015241;28;20052;-68
2022/03/24 00:50:20;;;;;;;32.50;22.52;;;9.50;99.30;;;;;;5015727;28;20034;-68
2022/03/24 00:52:46;;;;;;;31.40;21.55;;;9.60;99.50;;;;;;5015353;28;20038;-70
2022/03/24 00:55:15;;;;;;;35.75;23.42;;;9.50;99.50;;;;;;5015290;28;20092;-68
2022/03/24 00:57:43;;;;;;;36.83;23.15;;;9.50;99.80;;;;;;5014163;28;20042;-67
2022/03/24 01:00:15;;;;;;;34.90;22.77;;;9.40;99.90;;;;;;5015161;28;20045;-69
2022/03/24 01:02:44;;;;;;;36.58;22.75;;;9.40;99.90;;;;;;5015612;28;20096;-69
2022/03/24 01:05:13;;;;;;;31.67;22.75;;;9.30;99.90;;;;;;5015218;28;20048;-69
2022/03/24 01:07:39;;;;;;;34.03;21.88;;;9.30;99.90;;;;;;5014838;28;20042;-69
2022/03/24 01:10:06;;;;;;;36.22;22.77;;;9.30;99.90;;;;;;5015251;28;20107;-68
2022/03/24 01:12:32;;;;;;;36.25;23.25;;;9.20;99.90;;;;;;5014570;28;20054;-69
2022/03/24 01:14:58;;;;;;;36.08;22.25;;;9.20;99.90;;;;;;5014627;28;20466;-69
2022/03/24 01:17:26;;;;;;;33.03;23.77;;;9.20;99.90;;;;;;5014790;28;20080;-68
2022/03/24 01:19:52;;;;;;;34.47;23.45;;;9.20;99.90;;;;;;5015109;28;20553;-69
2022/03/24 01:22:18;;;;;;;33.58;24.13;;;9.10;99.90;;;;;;4997859;28;20364;-68
2022/03/24 01:24:45;;;;;;;31.58;22.55;;;9.10;99.90;;;;;;5014810;28;20049;-69
2022/03/24 01:27:11;;;;;;;34.13;23.65;;;9.10;99.90;;;;;;5014709;28;20061;-68
2022/03/24 01:29:37;;;;;;;37.38;25.45;;;9.00;99.90;;;;;;5013982;28;20049;-69
2022/03/24 01:32:03;;;;;;;35.60;24.35;;;9.10;99.90;;;;;;5014861;28;20057;-68
2022/03/24 01:34:29;;;;;;;37.60;24.52;;;9.10;99.90;;;;;;5014046;28;20053;-68
2022/03/24 01:36:55;;;;;;;33.60;23.52;;;9.00;99.90;;;;;;5014531;28;20053;-69
2022/03/24 01:39:22;;;;;;;33.85;23.92;;;9.00;99.90;;;;;;4996978;28;20044;-68
2022/03/24 01:41:50;;;;;;;34.20;24.42;;;8.90;99.90;;;;;;5014572;28;20348;-68
2022/03/24 01:44:17;;;;;;;36.17;24.25;;;8.90;99.90;;;;;;5014578;28;20088;-70
2022/03/24 01:47:05;;;;;;;34.25;24.08;;;8.90;99.90;;;;;;5014585;28;20034;-70
2022/03/24 01:49:34;;;;;;;37.17;23.73;;;8.90;99.90;;;;;;5014677;28;20130;-68
2022/03/24 01:52:00;;;;;;;33.90;23.92;;;8.90;99.90;;;;;;5014695;28;20049;-68
2022/03/24 01:54:30;;;;;;;42.35;25.63;;;8.80;99.90;;;;;;5014450;28;20030;-68
2022/03/24 01:56:57;;;;;;;37.15;25.02;;;8.80;99.90;;;;;;5014215;28;20134;-68
2022/03/24 01:59:23;;;;;;;35.85;24.05;;;8.70;99.90;;;;;;5014654;28;20066;-68
2022/03/24 02:01:50;;;;;;;37.72;25.30;;;8.70;99.90;;;;;;5014376;28;20038;-68
2022/03/24 02:04:17;;;;;;;39.20;25.92;;;8.60;99.90;;;;;;4996633;28;20037;-68
2022/03/24 02:06:43;;;;;;;50.88;31.15;;;8.60;99.90;;;;;;4997511;28;20096;-69
2022/03/24 02:09:11;;;;;;;50.67;32.67;;;8.70;99.90;;;;;;5013833;28;20436;-69
2022/03/24 02:11:37;;;;;;;49.78;30.23;;;8.70;99.90;;;;;;5014748;28;20092;-69
2022/03/24 02:14:05;;;;;;;54.20;33.70;;;8.70;99.90;;;;;;5013482;28;20049;-67
2022/03/24 02:16:35;;;;;;;47.35;31.75;;;8.70;99.90;;;;;;5014264;28;20054;-68
2022/03/24 02:19:21;;;;;;;49.53;30.83;;;8.60;99.90;;;;;;4996589;28;20042;-68
2022/03/24 02:21:48;;;;;;;40.95;26.67;;;8.60;99.90;;;;;;5014334;28;20104;-68
2022/03/24 02:24:15;;;;;;;34.45;26.52;;;8.50;99.90;;;;;;4996382;28;20041;-68
2022/03/24 02:26:42;;;;;;;36.45;26.33;;;8.40;99.90;;;;;;5013921;28;20510;-67
2022/03/24 02:29:13;;;;;;;36.95;26.92;;;8.30;99.90;;;;;;5014175;28;20038;-69
2022/03/24 02:31:43;;;;;;;37.30;25.83;;;8.20;99.90;;;;;;5014167;28;20034;-68
2022/03/24 02:36:57;;;;;;;43.95;28.70;;;8.10;99.90;;;;;;5013448;28;20050;-68
2022/03/24 02:39:23;;;;;;;40.60;27.65;;;8.10;99.90;;;;;;4996602;28;20458;-67
2022/03/24 02:41:53;;;;;;;38.88;28.95;;;8.10;99.90;;;;;;4996806;28;20378;-68
2022/03/24 02:44:21;;;;;;;41.67;29.77;;;8.00;99.90;;;;;;5013746;28;20406;-69
2022/03/24 02:46:48;;;;;;;41.55;27.88;;;8.00;99.90;;;;;;5014101;28;20045;-67
2022/03/24 02:49:18;;;;;;;42.90;27.85;;;8.00;99.90;;;;;;5013641;28;20129;-68
2022/03/24 02:51:44;;;;;;;40.28;28.27;;;8.00;99.90;;;;;;5014191;28;20038;-68
2022/03/24 02:54:11;;;;;;;41.40;28.63;;;8.00;99.90;;;;;;5013739;28;20108;-68
2022/03/24 02:56:37;;;;;;;40.78;28.23;;;7.90;99.90;;;;;;4996713;28;20125;-67
2022/03/24 02:59:04;;;;;;;41.80;28.48;;;8.00;99.90;;;;;;5013716;28;20046;-68
2022/03/24 03:01:30;;;;;;;38.88;26.67;;;8.00;99.90;;;;;;5013933;28;20122;-68
2022/03/24 03:03:56;;;;;;;41.63;28.88;;;8.00;99.90;;;;;;5013499;28;20038;-69
2022/03/24 03:06:22;;;;;;;45.30;28.73;;;8.00;99.90;;;;;;5013768;28;20121;-69
2022/03/24 03:08:51;;;;;;;36.78;28.88;;;8.00;99.90;;;;;;5013748;28;20054;-69
2022/03/24 03:11:17;;;;;;;40.05;28.27;;;7.90;99.90;;;;;;5013817;28;20054;-68
2022/03/24 03:13:43;;;;;;;36.75;27.80;;;8.00;99.90;;;;;;5012976;28;20046;-70
2022/03/24 03:16:09;;;;;;;40.67;27.52;;;7.90;99.90;;;;;;5013794;28;20383;-68
2022/03/24 03:18:35;;;;;;;38.88;27.95;;;7.90;99.90;;;;;;5013391;28;20056;-69
2022/03/24 03:21:00;;;;;;;42.58;29.95;;;7.90;99.90;;;;;;5014024;28;20108;-67
2022/03/24 03:23:26;;;;;;;40.35;29.27;;;7.80;99.90;;;;;;5017033;28;20034;-69
2022/03/24 03:25:52;;;;;;;39.50;29.20;;;7.80;99.90;;;;;;5017214;28;20042;-67
2022/03/24 03:28:18;;;;;;;38.50;28.27;;;7.90;99.90;;;;;;4999534;28;20360;-68
2022/03/24 03:30:45;;;;;;;39.05;27.45;;;7.80;99.90;;;;;;4983461;28;20057;-68
2022/03/24 03:33:11;;;;;;;38.13;27.60;;;7.80;99.90;;;;;;5016505;28;20042;-67
2022/03/24 03:35:37;;;;;;;38.22;27.58;;;7.80;99.90;;;;;;5017016;28;20049;-69
2022/03/24 03:38:03;;;;;;;38.35;27.73;;;7.80;99.90;;;;;;5016693;28;20451;-68
2022/03/24 03:40:29;;;;;;;40.20;30.00;;;7.70;99.90;;;;;;5017117;28;20042;-70
2022/03/24 03:42:55;;;;;;;41.33;28.75;;;7.70;99.90;;;;;;5016889;28;20037;-68
2022/03/24 03:45:21;;;;;;;39.72;27.95;;;7.70;99.90;;;;;;5016779;28;20033;-69
2022/03/24 03:47:47;;;;;;;38.30;28.65;;;7.70;99.90;;;;;;5016282;28;20336;-68
2022/03/24 03:50:13;;;;;;;39.78;29.30;;;7.70;99.90;;;;;;5017086;28;20451;-68
2022/03/24 03:52:39;;;;;;;43.15;29.20;;;7.70;99.90;;;;;;5016658;28;20045;-68
2022/03/24 03:55:06;;;;;;;42.80;28.77;;;7.60;99.90;;;;;;5016760;28;20052;-68
2022/03/24 03:57:32;;;;;;;39.60;28.35;;;7.60;99.90;;;;;;5015215;28;20041;-68
2022/03/24 04:00:52;;;;;;;40.10;28.83;;;7.60;99.90;;;;;;5016788;28;20048;-68
2022/03/24 04:02:43;;;;;;;41.78;28.23;;;7.50;99.90;;;;;;5016189;28;20471;-68
2022/03/24 04:05:09;;;;;;;41.55;29.10;;;7.60;99.90;;;;;;5016447;28;20103;-67
2022/03/24 04:07:34;;;;;;;42.97;29.20;;;7.50;99.90;;;;;;4998941;28;20033;-68
2022/03/24 04:10:00;;;;;;;39.03;28.70;;;7.50;99.90;;;;;;5016306;28;20073;-69
2022/03/24 04:12:25;;;;;;;41.75;29.77;;;7.40;99.90;;;;;;5016174;28;20054;-67
2022/03/24 04:14:51;;;;;;;42.42;29.13;;;7.40;99.90;;;;;;5015811;28;20050;-68
2022/03/24 04:17:18;;;;;;;41.05;29.33;;;7.30;99.90;;;;;;5015799;28;20096;-67
2022/03/24 04:19:43;;;;;;;40.28;28.70;;;7.30;99.90;;;;;;4999232;28;20451;-68
2022/03/24 04:22:09;;;;;;;38.28;29.17;;;7.20;99.90;;;;;;5016544;28;20152;-68
2022/03/24 04:24:35;;;;;;;40.30;29.33;;;7.00;99.90;;;;;;5015492;28;20046;-67
2022/03/24 04:27:01;;;;;;;40.17;29.00;;;6.80;99.90;;;;;;5015580;28;20068;-68
2022/03/24 04:29:26;;;;;;;41.20;28.80;;;6.70;99.90;;;;;;5016158;28;20034;-67
2022/03/24 04:31:52;;;;;;;44.58;30.70;;;6.70;99.90;;;;;;5014659;28;20370;-68
2022/03/24 04:34:17;;;;;;;39.75;28.70;;;6.70;99.90;;;;;;5016105;28;20045;-68
2022/03/24 04:36:43;;;;;;;37.85;28.45;;;6.60;99.90;;;;;;5015851;28;20042;-68
2022/03/24 04:39:09;;;;;;;41.92;29.38;;;6.60;99.90;;;;;;5016279;28;20383;-68
2022/03/24 04:41:34;;;;;;;39.08;28.60;;;6.60;99.90;;;;;;5015088;28;20084;-67
2022/03/24 04:44:01;;;;;;;41.95;29.40;;;6.60;99.90;;;;;;5015668;28;20348;-68
2022/03/24 04:46:27;;;;;;;39.70;28.70;;;6.60;99.90;;;;;;5015637;28;20046;-68
2022/03/24 04:48:52;;;;;;;39.05;28.33;;;6.60;99.90;;;;;;5015419;28;20410;-68
2022/03/24 04:51:18;;;;;;;42.60;29.58;;;6.60;99.90;;;;;;5015397;28;20418;-67
2022/03/24 04:53:44;;;;;;;43.42;28.92;;;6.60;99.90;;;;;;5015306;28;20037;-68
2022/03/24 04:56:10;;;;;;;44.15;29.30;;;6.60;99.90;;;;;;5015673;28;20099;-68
2022/03/24 04:58:37;;;;;;;40.95;30.08;;;6.60;99.90;;;;;;4998000;28;20052;-67
2022/03/24 05:01:02;;;;;;;40.75;30.08;;;6.60;99.90;;;;;;5015331;28;20755;-67
2022/03/24 05:03:28;;;;;;;42.28;30.63;;;6.60;99.90;;;;;;5014974;28;20030;-67
2022/03/24 05:05:54;;;;;;;42.65;31.33;;;6.70;99.90;;;;;;5015170;28;20455;-68
2022/03/24 05:08:20;;;;;;;45.78;30.70;;;6.70;99.90;;;;;;5015020;28;20044;-67
2022/03/24 05:10:46;;;;;;;45.53;31.10;;;6.70;99.90;;;;;;5015362;28;20376;-68
2022/03/24 05:13:11;;;;;;;43.35;31.48;;;6.70;99.90;;;;;;5014597;28;20084;-67
2022/03/24 05:15:38;;;;;;;44.65;31.80;;;6.70;99.90;;;;;;5015183;28;20128;-67
2022/03/24 05:18:04;;;;;;;46.95;31.58;;;6.70;99.90;;;;;;5015018;28;20052;-67
2022/03/24 05:20:30;;;;;;;49.13;32.25;;;6.70;99.90;;;;;;4998119;28;20148;-67
2022/03/24 05:22:55;;;;;;;49.63;34.42;;;6.70;99.90;;;;;;4997450;28;20141;-67
2022/03/24 05:25:21;;;;;;;45.35;32.13;;;6.70;99.90;;;;;;5014952;28;20034;-69
2022/03/24 05:27:47;;;;;;;45.70;31.30;;;6.70;99.90;;;;;;5014540;28;20141;-67
2022/03/24 05:30:13;;;;;;;44.88;31.80;;;6.70;99.90;;;;;;5014618;28;20041;-68
2022/03/24 05:32:42;;;;;;;41.22;31.48;;;6.70;99.90;;;;;;4997264;28;20066;-68
2022/03/24 05:35:09;;;;;;;44.92;32.22;;;6.70;99.90;;;;;;5014433;28;20045;-67
2022/03/24 05:37:34;;;;;;;43.88;32.08;;;6.70;99.90;;;;;;5014540;28;20052;-67
2022/03/24 05:40:00;;;;;;;47.47;32.50;;;6.70;99.90;;;;;;5014792;28;20117;-67
2022/03/24 05:42:27;;;;;;;48.85;33.55;;;6.70;99.90;;;;;;5014643;28;20048;-67
2022/03/24 05:44:53;;;;;;;44.88;31.23;;;6.70;99.90;;;;;;5014091;28;20348;-68
2022/03/24 05:47:19;;;;;;;44.72;32.40;;;6.60;99.90;;;;;;4997306;28;20108;-67
2022/03/24 05:49:45;;;;;;;45.53;32.85;;;6.70;99.90;;;;;;4997216;28;20042;-68
2022/03/24 05:52:12;;;;;;;48.95;32.50;;;6.70;99.90;;;;;;5014816;28;20046;-67
2022/03/24 05:54:37;;;;;;;50.95;33.38;;;6.70;99.90;;;;;;5014213;28;20038;-67
2022/03/24 05:57:03;;;;;;;49.47;33.85;;;6.80;99.90;;;;;;5013613;28;20447;-67
2022/03/24 05:59:29;;;;;;;49.30;34.80;;;6.90;99.90;;;;;;5014248;28;20088;-67
2022/03/24 06:01:55;;;;;;;49.33;34.53;;;7.00;99.90;;;;;;5001367;28;20030;-67
2022/03/24 06:04:23;;;;;;;45.72;34.08;;;7.10;99.90;;;;;;5004301;28;20118;-68
2022/03/24 06:06:55;;;;;;;46.38;34.53;;;7.30;99.90;;;;;;5013484;28;20098;-70
2022/03/24 06:09:21;;;;;;;47.53;35.05;;;7.40;99.90;;;;;;4993810;28;20371;-68
2022/03/24 06:11:47;;;;;;;49.95;35.85;;;7.50;99.90;;;;;;5014764;28;20033;-66
2022/03/24 06:14:13;;;;;;;50.10;33.88;;;7.50;99.90;;;;;;5013877;28;20359;-69
2022/03/24 06:16:40;;;;;;;45.60;34.28;;;7.60;99.90;;;;;;5013218;28;20443;-68
2022/03/24 06:19:07;;;;;;;49.58;35.50;;;7.60;99.90;;;;;;4996701;28;20061;-68
2022/03/24 06:21:33;;;;;;;58.08;39.67;;;7.80;99.90;;;;;;4996384;28;20049;-68
2022/03/24 06:23:58;;;;;;;66.18;48.83;;;8.10;99.90;;;;;;5013621;28;20461;-68
2022/03/24 06:26:24;;;;;;;61.30;46.03;;;8.40;99.90;;;;;;5014117;28;20045;-69
2022/03/24 06:28:52;;;;;;;65.03;46.88;;;8.80;99.90;;;;;;5011155;28;20117;-68
2022/03/24 06:31:18;;;;;;;60.05;42.10;;;9.00;99.90;;;;;;5013921;28;20117;-67
2022/03/24 06:33:44;;;;;;;55.22;38.25;;;9.10;99.90;;;;;;5013646;28;20034;-69
2022/03/24 06:36:10;;;;;;;53.70;36.97;;;9.50;99.90;;;;;;5013833;28;20054;-68
2022/03/24 06:38:37;;;;;;;49.88;36.67;;;9.60;99.90;;;;;;5013591;28;20124;-69
2022/03/24 06:41:05;;;;;;;54.65;36.58;;;9.80;99.90;;;;;;5014065;28;20042;-69
2022/03/24 06:43:31;;;;;;;53.15;38.10;;;9.90;99.90;;;;;;5013768;28;20077;-68
2022/03/24 06:45:57;;;;;;;50.15;35.97;;;10.10;99.90;;;;;;4994649;28;20042;-70
2022/03/24 06:48:23;;;;;;;50.20;36.65;;;10.30;99.90;;;;;;5013504;28;20041;-69
2022/03/24 06:50:49;;;;;;;53.85;38.05;;;10.60;99.90;;;;;;5013397;28;20096;-72
2022/03/24 06:53:15;;;;;;;51.75;36.47;;;10.60;99.90;;;;;;4995397;28;20451;-70
2022/03/24 06:55:41;;;;;;;54.42;37.47;;;10.80;99.90;;;;;;5013443;28;20088;-69
2022/03/24 06:58:06;;;;;;;55.80;35.78;;;10.70;99.90;;;;;;5017057;28;20061;-69
2022/03/24 07:00:32;;;;;;;52.53;35.60;;;10.80;99.90;;;;;;5017762;28;20056;-68
2022/03/24 07:02:58;;;;;;;51.75;36.83;;;10.60;99.90;;;;;;5000079;28;20042;-65
2022/03/24 07:05:24;;;;;;;54.17;36.60;;;10.40;99.90;;;;;;5017382;28;20109;-69
2022/03/24 07:07:50;;;;;;;51.45;35.70;;;10.20;99.90;;;;;;5020530;28;20033;-69
2022/03/24 07:10:20;;;;;;;50.22;36.53;;;10.40;99.90;;;;;;5000273;28;20070;-70
2022/03/24 07:12:48;;;;;;;57.58;36.13;;;10.40;99.90;;;;;;5016057;28;20053;-71
2022/03/24 07:15:14;;;;;;;50.58;35.38;;;10.40;99.90;;;;;;5015875;28;20045;-69
2022/03/24 07:17:40;;;;;;;47.75;34.50;;;10.50;99.90;;;;;;5016267;28;20042;-68
2022/03/24 07:20:07;;;;;;;47.97;36.13;;;10.50;99.90;;;;;;5016644;28;20069;-69
2022/03/24 07:22:36;;;;;;;47.67;35.17;;;10.50;99.90;;;;;;5016386;28;20045;-69
2022/03/24 07:25:02;;;;;;;55.38;36.38;;;10.50;99.90;;;;;;5015986;28;20037;-69
2022/03/24 07:27:28;;;;;;;53.50;36.95;;;10.50;99.90;;;;;;5016775;28;20161;-69
2022/03/24 07:29:54;;;;;;;47.00;35.47;;;10.60;99.90;;;;;;5017047;28;20033;-68
2022/03/24 07:32:20;;;;;;;49.53;35.45;;;10.70;99.90;;;;;;5016912;28;20473;-70
2022/03/24 07:34:46;;;;;;;53.13;37.50;;;10.80;99.90;;;;;;5010668;28;20037;-69
2022/03/24 07:37:12;;;;;;;51.97;37.42;;;10.80;99.90;;;;;;5016108;28;20478;-69
2022/03/24 07:39:38;;;;;;;54.60;37.05;;;10.90;99.90;;;;;;5016763;28;20037;-69
2022/03/24 07:42:04;;;;;;;51.88;37.03;;;11.00;99.90;;;;;;5016493;28;20486;-68
2022/03/24 07:44:30;;;;;;;51.88;35.85;;;11.00;99.90;;;;;;5016230;28;20137;-68
2022/03/24 07:46:56;;;;;;;52.60;36.25;;;11.20;99.90;;;;;;5016100;28;20120;-69
2022/03/24 07:49:22;;;;;;;53.88;36.15;;;11.20;99.90;;;;;;5016797;28;20073;-69
2022/03/24 07:51:48;;;;;;;51.30;35.83;;;11.30;99.90;;;;;;5016270;28;20038;-72
2022/03/24 07:54:13;;;;;;;52.63;36.70;;;11.40;99.90;;;;;;5016428;28;20104;-70
2022/03/24 07:56:39;;;;;;;52.40;33.00;;;11.60;99.90;;;;;;5016436;28;20084;-68
2022/03/24 07:59:06;;;;;;;46.63;33.63;;;11.70;99.90;;;;;;4998922;28;20114;-68
2022/03/24 08:01:34;;;;;;;48.05;34.78;;;11.70;99.90;;;;;;5016531;28;20048;-68
2022/03/24 08:04:02;;;;;;;49.83;34.80;;;11.80;99.90;;;;;;5016360;28;20069;-69
2022/03/24 08:06:28;;;;;;;52.25;36.15;;;11.90;99.90;;;;;;5016065;28;20125;-68
2022/03/24 08:08:55;;;;;;;52.63;36.70;;;11.90;99.90;;;;;;4998406;28;20042;-68
2022/03/24 08:11:22;;;;;;;46.38;34.45;;;12.00;99.90;;;;;;4996765;28;20452;-69
2022/03/24 08:13:53;;;;;;;49.10;34.78;;;12.10;99.90;;;;;;4998966;28;20061;-69
2022/03/24 08:16:21;;;;;;;51.58;34.45;;;12.20;99.90;;;;;;5000451;28;20050;-69
2022/03/24 08:18:46;;;;;;;45.30;34.10;;;12.20;99.90;;;;;;4977833;28;20053;-68
2022/03/24 08:21:12;;;;;;;52.78;34.33;;;12.10;99.90;;;;;;4994952;28;20038;-68
2022/03/24 08:23:38;;;;;;;50.22;33.03;;;12.20;99.90;;;;;;4999704;28;20041;-69
2022/03/24 08:26:05;;;;;;;44.50;31.88;;;12.30;99.90;;;;;;5016069;28;20103;-68
2022/03/24 08:28:31;;;;;;;46.50;32.92;;;12.40;99.90;;;;;;5015595;28;20054;-68
2022/03/24 08:30:57;;;;;;;45.55;32.55;;;12.40;99.90;;;;;;5015530;28;20049;-68
2022/03/24 08:33:22;;;;;;;46.58;32.05;;;12.40;99.90;;;;;;5015509;28;20033;-69
2022/03/24 08:35:48;;;;;;;46.90;32.55;;;12.50;99.90;;;;;;5015635;28;20335;-68
2022/03/24 08:38:13;;;;;;;48.35;31.17;;;12.70;99.90;;;;;;5015267;28;20041;-69
2022/03/24 08:40:39;;;;;;;48.08;32.58;;;12.80;99.90;;;;;;5016314;28;20073;-70
2022/03/24 08:43:05;;;;;;;44.90;31.73;;;12.90;99.90;;;;;;5015500;28;20348;-68
2022/03/24 08:45:31;;;;;;;44.60;30.77;;;13.20;99.90;;;;;;4998451;28;20457;-68
2022/03/24 08:47:57;;;;;;;54.85;33.20;;;13.30;99.90;;;;;;5015195;28;20111;-67
2022/03/24 08:50:23;;;;;;;48.75;32.30;;;13.40;99.90;;;;;;5015550;28;20455;-68
2022/03/24 08:52:49;;;;;;;52.80;32.95;;;13.50;99.90;;;;;;5014811;28;20041;-68
2022/03/24 08:55:16;;;;;;;49.00;32.60;;;13.70;99.90;;;;;;5015007;28;20047;-69
2022/03/24 08:57:42;;;;;;;49.08;32.70;;;13.70;99.90;;;;;;5014841;28;20474;-68
2022/03/24 09:00:15;;;;;;;44.95;32.30;;;13.70;99.90;;;;;;5015761;28;20340;-67
2022/03/24 09:02:47;;;;;;;51.20;32.70;;;13.80;99.90;;;;;;4998167;28;20041;-68
2022/03/24 09:05:13;;;;;;;46.63;34.90;;;14.00;99.90;;;;;;5015224;28;20038;-70
2022/03/24 09:07:40;;;;;;;42.80;31.70;;;14.10;99.90;;;;;;5015150;28;20068;-68
2022/03/24 09:10:08;;;;;;;45.50;31.73;;;14.30;99.90;;;;;;5015070;28;20053;-68
2022/03/24 09:12:39;;;;;;;46.22;32.08;;;14.40;99.90;;;;;;5014843;28;20096;-68
2022/03/24 09:15:09;;;;;;;51.17;32.50;;;14.40;99.90;;;;;;5014141;28;20527;-68
2022/03/24 09:17:37;;;;;;;43.50;30.50;;;14.50;99.90;;;;;;5014401;28;20375;-69
2022/03/24 09:20:09;;;;;;;52.30;33.15;;;14.60;99.90;;;;;;5014314;28;20220;-69
2022/03/24 09:22:45;;;;;;;44.17;30.13;;;14.60;99.80;;;;;;5014983;28;20049;-69
2022/03/24 09:25:15;;;;;;;45.08;29.85;;;14.70;99.60;;;;;;5014805;28;20038;-67
2022/03/24 09:27:42;;;;;;;41.50;30.70;;;14.90;99.70;;;;;;5014705;28;20152;-68
2022/03/24 09:30:12;;;;;;;44.92;30.67;;;14.80;99.50;;;;;;5015149;28;20069;-69
2022/03/24 09:32:37;;;;;;;44.03;29.27;;;14.90;99.50;;;;;;5014852;28;20041;-68
2022/03/24 09:35:04;;;;;;;38.70;28.52;;;15.00;99.40;;;;;;4997082;28;20386;-68
2022/03/24 09:37:32;;;;;;;42.10;29.00;;;15.10;99.30;;;;;;5014590;28;20133;-68
2022/03/24 09:39:58;;;;;;;44.15;28.85;;;15.30;98.70;;;;;;5014151;28;20463;-66
2022/03/24 09:42:24;;;;;;;43.33;29.83;;;15.40;98.40;;;;;;4993847;28;20038;-69
2022/03/24 09:44:49;;;;;;;38.58;28.52;;;15.30;98.20;;;;;;5007133;28;20037;-68
2022/03/24 09:47:16;;;;;;;40.28;27.83;;;15.50;97.60;;;;;;5014181;28;20072;-68
2022/03/24 09:49:43;;;;;;;45.15;27.80;;;15.60;97.00;;;;;;5014507;28;20145;-68
2022/03/24 09:52:10;;;;;;;38.95;27.40;;;15.80;97.00;;;;;;5014686;28;20045;-68
2022/03/24 09:54:42;;;;;;;45.08;28.48;;;15.80;97.10;;;;;;5014436;28;20045;-68
2022/03/24 09:57:09;;;;;;;46.55;27.48;;;15.80;97.00;;;;;;5014380;28;20046;-70
2022/03/24 09:59:35;;;;;;;38.20;25.98;;;15.80;96.90;;;;;;5014635;28;20053;-69
2022/03/24 10:02:03;;;;;;;38.75;27.23;;;15.80;96.80;;;;;;4996867;28;20060;-68
2022/03/24 10:04:49;;;;;;;43.10;27.02;;;15.90;96.70;;;;;;5014122;28;20219;-68
2022/03/24 10:07:18;;;;;;;37.80;27.48;;;16.00;96.30;;;;;;5013814;28;20038;-69
2022/03/24 10:09:49;;;;;;;39.42;26.63;;;16.10;96.10;;;;;;5013330;28;20046;-70
2022/03/24 10:12:21;;;;;;;40.83;26.63;;;16.10;96.10;;;;;;5014059;28;20041;-69
2022/03/24 10:15:00;;;;;;;39.53;26.88;;;16.20;96.20;;;;;;5013791;28;20129;-69
2022/03/24 10:17:26;;;;;;;39.40;27.23;;;16.30;95.40;;;;;;5013511;28;20516;-68
2022/03/24 10:20:07;;;;;;;36.50;26.23;;;16.40;95.50;;;;;;5014182;28;20038;-68
2022/03/24 10:22:33;;;;;;;35.92;26.17;;;16.50;95.10;;;;;;5013973;28;20394;-68
2022/03/24 10:24:59;;;;;;;36.20;25.15;;;16.60;95.20;;;;;;5013629;28;20030;-70
2022/03/24 10:27:28;;;;;;;38.75;25.50;;;16.70;94.40;;;;;;5013765;28;20100;-69
2022/03/24 10:29:56;;;;;;;37.83;23.40;;;16.60;93.90;;;;;;5014301;28;20054;-69
2022/03/24 10:32:30;;;;;;;34.70;23.73;;;16.90;93.40;;;;;;5017760;28;20402;-69
2022/03/24 10:34:57;;;;;;;;;;;16.90;92.80;;;;;;5018422;28;20050;-69
2022/03/24 10:37:26;;;;;;;41.22;26.77;;;16.90;93.10;;;;;;5017553;28;20317;-69
2022/03/24 10:40:08;;;;;;;37.03;23.55;;;17.10;93.00;;;;;;5017878;28;20344;-69
2022/03/24 10:42:36;;;;;;;35.17;23.65;;;17.20;92.30;;;;;;5004363;28;20038;-71
2022/03/24 10:45:20;;;;;;;31.33;23.40;;;17.10;91.80;;;;;;5011704;28;20076;-69
2022/03/24 10:47:49;;;;;;;35.72;24.30;;;17.10;91.60;;;;;;5017766;28;20049;-70
2022/03/24 10:50:32;;;;;;;36.92;23.95;;;17.30;91.00;;;;;;5000908;28;20108;-70
2022/03/24 10:53:04;;;;;;;36.92;24.35;;;17.40;90.40;;;;;;5017850;28;20054;-70
2022/03/24 10:55:30;;;;;;;36.15;23.45;;;17.40;90.70;;;;;;5017391;28;20041;-69
2022/03/24 10:57:58;;;;;;;34.05;23.17;;;17.60;90.90;;;;;;5017474;28;20485;-69
2022/03/24 11:00:24;;;;;;;31.90;20.20;;;17.60;89.40;;;;;;5017630;28;20120;-67
2022/03/24 11:02:50;;;;;;;29.50;18.80;;;17.80;85.80;;;;;;5017354;28;20068;-69
2022/03/24 11:05:17;;;;;;;31.20;19.33;;;18.00;81.80;;;;;;5017460;28;20045;-69
2022/03/24 11:07:51;;;;;;;30.63;20.15;;;18.10;80.90;;;;;;5016965;28;20120;-72
2022/03/24 11:10:17;;;;;;;28.23;19.65;;;18.10;81.60;;;;;;4999929;28;20046;-69
2022/03/24 11:12:43;;;;;;;31.27;22.50;;;18.20;80.30;;;;;;4999683;28;20058;-69
2022/03/24 11:15:10;;;;;;;28.35;19.48;;;18.20;81.70;;;;;;4979998;28;20428;-68
2022/03/24 11:17:39;;;;;;;30.08;17.65;;;18.40;78.10;;;;;;4996065;28;20474;-69
2022/03/24 11:20:07;;;;;;;27.55;18.33;;;18.10;77.10;;;;;;4996260;28;20427;-68
2022/03/24 11:23:11;;;;;;;26.77;16.67;;;18.20;77.50;;;;;;4996474;28;20038;-68
2022/03/24 11:25:37;;;;;;;32.35;18.08;;;18.40;76.30;;;;;;4998662;28;20034;-70
2022/03/24 11:28:06;;;;;;;28.25;19.02;;;18.20;76.90;;;;;;4995696;28;20046;-69
2022/03/24 11:30:34;;;;;;;29.55;19.88;;;18.30;78.00;;;;;;4996353;28;20276;-68
2022/03/24 11:33:03;;;;;;;29.08;20.50;;;18.30;78.50;;;;;;4995840;28;20039;-69
2022/03/24 11:35:32;;;;;;;32.42;22.33;;;18.20;79.40;;;;;;4998522;28;20045;-68
2022/03/24 11:37:59;;;;;;;32.55;23.00;;;18.20;79.50;;;;;;4995784;28;20146;-68
2022/03/24 11:40:27;;;;;;;32.00;21.95;;;18.20;79.70;;;;;;4994700;28;20046;-69
2022/03/24 11:43:02;;;;;;;31.27;21.92;;;18.00;79.80;;;;;;4993304;28;20046;-68
2022/03/24 11:45:35;;;;;;;29.00;20.02;;;18.20;80.00;;;;;;5000290;28;20048;-70
2022/03/24 11:48:05;;;;;;;32.78;20.35;;;18.30;81.20;;;;;;4995642;28;20381;-69
2022/03/24 11:50:55;;;;;;;33.72;22.83;;;18.40;80.40;;;;;;4988647;28;20060;-70
2022/03/24 11:53:29;;;;;;;30.77;21.08;;;18.50;79.60;;;;;;4981975;28;20038;-68
2022/03/24 11:56:03;;;;;;;30.38;21.23;;;18.50;79.90;;;;;;5016055;28;20038;-68
2022/03/24 11:58:36;;;;;;;32.80;21.85;;;18.70;79.00;;;;;;5016661;28;20052;-69
2022/03/24 12:01:24;;;;;;;32.53;20.98;;;18.70;79.10;;;;;;5016766;28;20037;-69
2022/03/24 12:04:14;;;;;;;27.88;20.02;;;18.70;78.70;;;;;;5015938;28;20086;-69
2022/03/24 12:06:46;;;;;;;28.17;20.08;;;18.40;79.50;;;;;;5016320;28;20046;-69
2022/03/24 12:09:17;;;;;;;29.02;19.50;;;18.40;79.80;;;;;;4998849;28;20068;-68
2022/03/24 12:11:47;;;;;;;29.38;19.80;;;18.40;80.20;;;;;;5016101;28;20042;-69
2022/03/24 12:14:35;;;;;;;30.40;19.67;;;18.40;79.70;;;;;;5015347;28;20061;-70
2022/03/24 12:17:15;;;;;;;30.58;20.77;;;18.30;79.20;;;;;;4998296;28;20064;-69
2022/03/24 12:20:03;;;;;;;30.52;20.40;;;18.30;79.90;;;;;;5016464;28;20048;-68
2022/03/24 12:22:35;;;;;;;28.83;19.83;;;18.50;78.30;;;;;;5016013;28;20446;-70
2022/03/24 12:25:01;;;;;;;29.98;19.63;;;18.60;77.70;;;;;;5015638;28;20431;-69
2022/03/24 12:27:53;;;;;;;32.10;20.05;;;18.60;78.00;;;;;;5015668;28;20136;-68
2022/03/24 12:30:19;;;;;;;26.98;20.48;;;18.70;77.50;;;;;;5016292;28;20042;-71
2022/03/24 12:33:28;;;;;;;26.60;19.33;;;18.60;77.80;;;;;;5015431;28;20038;-68
2022/03/24 12:35:55;;;;;;;31.67;21.30;;;18.60;78.80;;;;;;4989809;28;20078;-69
2022/03/24 12:38:22;;;;;;;27.98;19.48;;;18.50;79.30;;;;;;4998859;28;20057;-69
2022/03/24 12:41:06;;;;;;;32.70;20.02;;;18.30;80.10;;;;;;4998496;28;20092;-68